Time;durP1;ratioP1;P1;durP2;ratioP2;P2;SDS_P1;SDS_P2;PMS_P1;PMS_P2;Temp;Humidity;BMP_temperature;BMP_pressure;BME280_temperature;BME280_humidity;BME280_pressure;Samples;Min_cycle;Max_cycle;Signal;HPM_P1;HPM_P2
2024/03/29 10:11:29;;;;;;;6.53;1.90;;;;;;;9.38;100.00;94891.19;2099404;27;20570;-68
2024/03/29 10:13:31;;;;;;;7.03;1.90;;;;;;;9.22;100.00;94891.38;2084099;28;20559;-67
2024/03/29 10:14:31;;;;;;;3.83;1.67;;;;;;;9.37;100.00;94887.75;2078646;28;20284;-70
2024/03/29 10:16:31;;;;;;;3.55;1.70;;;;;;;9.46;98.14;94857.63;2084025;28;20574;-69
2024/03/29 10:17:32;;;;;;;4.30;1.88;;;;;;;9.65;98.32;94880.66;2082309;28;20705;-69
2024/03/29 10:18:32;;;;;;;2.53;1.63;;;;;;;9.40;98.75;94878.91;2065869;28;20625;-70
2024/03/29 10:19:33;;;;;;;4.70;1.73;;;;;;;9.43;99.25;94883.88;2059692;28;20330;-71
2024/03/29 10:20:34;;;;;;;3.37;1.40;;;;;;;9.44;98.12;94890.78;2059197;28;20200;-71
2024/03/29 10:21:36;;;;;;;2.83;1.35;;;;;;;9.86;96.94;94883.53;2062700;28;20245;-71
2024/03/29 10:22:43;;;;;;;3.90;1.50;;;;;;;10.10;95.67;94878.34;2071524;28;20209;-71
2024/03/29 10:23:46;;;;;;;5.43;1.75;;;;;;;10.19;96.38;94883.88;2065688;28;20205;-71
2024/03/29 10:24:47;;;;;;;4.93;1.70;;;;;;;10.57;92.59;94886.34;2064610;28;20269;-71
2024/03/29 10:25:47;;;;;;;5.70;2.13;;;;;;;10.82;91.79;94879.34;2065183;28;20638;-72
2024/03/29 10:26:48;;;;;;;2.80;1.37;;;;;;;10.54;93.11;94881.38;2064744;28;20211;-71
2024/03/29 10:27:49;;;;;;;4.77;1.40;;;;;;;10.22;93.90;94881.88;2066976;28;20203;-71
2024/03/29 10:28:51;;;;;;;3.90;1.37;;;;;;;10.47;95.58;94880.13;2066262;28;20209;-71
2024/03/29 10:29:52;;;;;;;4.60;1.60;;;;;;;10.68;95.36;94869.06;2066933;28;20455;-72
2024/03/29 10:30:55;;;;;;;5.05;1.75;;;;;;;10.91;96.23;94876.06;2066662;28;20259;-71
2024/03/29 10:31:56;;;;;;;3.78;1.50;;;;;;;11.14;94.45;94870.06;2061295;28;20204;-71
2024/03/29 10:32:57;;;;;;;2.88;1.40;;;;;;;10.98;90.73;94868.59;2063757;28;20214;-72
2024/03/29 10:34:05;;;;;;;6.40;1.30;;;;;;;10.71;94.25;94874.09;2066323;28;20450;-71
2024/03/29 10:35:07;;;;;;;4.70;1.20;;;;;;;10.73;95.81;94869.59;2067992;28;20231;-64
2024/03/29 10:36:09;;;;;;;4.05;1.48;;;;;;;10.92;96.59;94869.88;2072388;28;20219;-63
2024/03/29 10:37:10;;;;;;;6.07;1.30;;;;;;;11.18;96.29;94866.28;2066536;28;20308;-64
2024/03/29 10:38:11;;;;;;;5.72;1.10;;;;;;;11.07;95.87;94862.69;2063692;28;20212;-64
2024/03/29 10:39:12;;;;;;;3.25;1.13;;;;;;;11.00;95.32;94863.28;2070095;28;20227;-64
2024/03/29 10:40:17;;;;;;;3.90;1.57;;;;;;;10.86;93.63;94859.91;2071155;28;20230;-64
2024/03/29 10:41:17;;;;;;;3.20;1.17;;;;;;;10.94;91.68;94862.78;2062455;28;20254;-64
2024/03/29 10:42:23;;;;;;;2.03;0.93;;;;;;;11.06;93.04;94862.81;2063433;28;20249;-64
2024/03/29 10:43:24;;;;;;;2.35;1.00;;;;;;;11.25;91.90;94868.31;2065298;28;20440;-71
2024/03/29 10:44:25;;;;;;;2.70;1.02;;;;;;;11.10;91.26;94865.06;2060901;28;20224;-70
2024/03/29 10:45:27;;;;;;;2.70;1.00;;;;;;;11.38;88.93;94872.63;2046319;28;20211;-72
2024/03/29 10:46:30;;;;;;;4.55;1.00;;;;;;;11.58;87.96;94869.31;2056915;28;20301;-71
2024/03/29 10:47:32;;;;;;;5.00;1.38;;;;;;;11.84;88.13;94871.66;2064630;28;20203;-72
2024/03/29 10:48:35;;;;;;;2.42;0.80;;;;;;;12.04;88.61;94867.53;2053758;28;20274;-68
2024/03/29 10:49:36;;;;;;;3.65;0.98;;;;;;;12.11;88.90;94867.88;2058845;28;20215;-72
2024/03/29 10:50:39;;;;;;;2.80;0.90;;;;;;;12.11;84.55;94862.63;2064649;28;20224;-71
2024/03/29 10:51:41;;;;;;;5.80;0.90;;;;;;;12.12;82.98;94869.53;2057795;28;20975;-72
2024/03/29 10:52:43;;;;;;;2.28;0.90;;;;;;;12.35;83.05;94864.25;2059553;28;20224;-72
2024/03/29 10:53:44;;;;;;;3.58;1.33;;;;;;;12.44;82.45;94863.50;2064596;28;20237;-71
2024/03/29 10:54:45;;;;;;;2.22;0.90;;;;;;;12.32;80.78;94869.75;2064486;28;20210;-71
2024/03/29 10:55:47;;;;;;;2.00;1.00;;;;;;;12.48;79.46;94870.19;2074292;28;20219;-71
2024/03/29 10:56:59;;;;;;;5.13;0.90;;;;;;;12.07;81.41;94862.06;2073207;28;20202;-72
2024/03/29 10:58:04;;;;;;;2.78;1.00;;;;;;;12.11;84.30;94867.06;2063428;28;20215;-72
2024/03/29 10:59:16;;;;;;;5.57;1.23;;;;;;;12.22;86.14;94874.88;2059967;28;20222;-72
2024/03/29 11:00:20;;;;;;;3.03;1.08;;;;;;;12.34;88.32;94871.28;2065282;28;20245;-72
2024/03/29 11:01:23;;;;;;;6.90;1.20;;;;;;;12.42;89.44;94873.28;2072370;28;20228;-72
2024/03/29 11:02:55;;;;;;;3.65;1.00;;;;;;;12.64;88.22;94872.38;2065574;28;20633;-72
2024/03/29 11:04:03;;;;;;;3.28;0.80;;;;;;;12.29;88.19;94869.97;2065614;28;20235;-72
2024/03/29 11:05:09;;;;;;;2.05;0.80;;;;;;;12.60;87.62;94876.22;2059201;28;20208;-72
2024/03/29 11:06:12;;;;;;;2.38;0.98;;;;;;;12.67;87.06;94873.91;2061973;28;20215;-71
2024/03/29 11:07:19;;;;;;;2.33;1.10;;;;;;;12.92;87.72;94878.00;2065090;28;20325;-71
2024/03/29 11:08:25;;;;;;;4.22;1.23;;;;;;;12.34;86.93;94879.16;2065034;28;20215;-71
2024/03/29 11:09:30;;;;;;;1.80;0.90;;;;;;;12.15;86.59;94878.94;2065776;28;20218;-71
2024/03/29 11:10:43;;;;;;;1.85;0.80;;;;;;;12.20;84.43;94872.41;2061089;28;20237;-71
2024/03/29 11:11:49;;;;;;;2.08;0.90;;;;;;;11.48;89.10;94865.72;2060053;28;20291;-71
2024/03/29 11:12:58;;;;;;;2.60;0.80;;;;;;;11.59;90.26;94864.88;2064697;28;20694;-71
2024/03/29 11:14:05;;;;;;;19.08;1.15;;;;;;;11.96;90.37;94876.94;2064777;28;20219;-71
2024/03/29 11:15:15;;;;;;;4.68;0.88;;;;;;;12.20;91.24;94874.16;2069131;28;20272;-71
2024/03/29 11:16:16;;;;;;;2.42;0.90;;;;;;;12.33;88.79;94879.25;2069226;28;20241;-71
2024/03/29 11:17:18;;;;;;;3.55;0.80;;;;;;;12.04;88.31;94880.59;2064974;28;20203;-71
2024/03/29 11:18:20;;;;;;;5.13;0.90;;;;;;;11.84;88.60;94884.75;2066076;28;20211;-71
2024/03/29 11:19:21;;;;;;;2.45;1.00;;;;;;;11.90;89.43;94876.44;2061440;28;20225;-71
2024/03/29 11:20:30;;;;;;;6.00;1.10;;;;;;;11.99;86.02;94877.53;2065644;28;20684;-71
2024/03/29 11:21:31;;;;;;;4.75;1.27;;;;;;;12.06;86.07;94870.03;2064021;28;20505;-71
2024/03/29 11:22:32;;;;;;;3.53;1.00;;;;;;;11.88;87.37;94873.13;2066594;28;20202;-72
2024/03/29 11:23:33;;;;;;;2.90;1.40;;;;;;;11.82;88.42;94868.34;2064564;28;20277;-70
2024/03/29 11:24:34;;;;;;;5.50;1.17;;;;;;;11.67;86.52;94865.16;2063936;28;20323;-71
2024/03/29 11:25:55;;;;;;;2.60;0.90;;;;;;;11.75;85.96;94861.94;2070235;28;20206;-71
2024/03/29 11:26:55;;;;;;;2.20;1.00;;;;;;;11.88;86.43;94867.88;2068539;28;20215;-72
2024/03/29 11:28:07;;;;;;;2.77;1.30;;;;;;;11.79;85.88;94857.31;2058269;28;20211;-71
2024/03/29 11:29:19;;;;;;;3.50;1.23;;;;;;;11.66;87.19;94858.25;2057053;28;20256;-69
2024/03/29 11:30:20;;;;;;;2.42;1.20;;;;;;;11.60;88.80;94866.56;2061051;28;20218;-69
2024/03/29 11:31:24;;;;;;;2.73;0.90;;;;;;;11.41;88.72;94857.53;2054012;28;20209;-71
2024/03/29 11:32:36;;;;;;;2.40;1.08;;;;;;;11.70;88.81;94861.47;2066937;28;20242;-69
2024/03/29 11:33:37;;;;;;;1.98;1.00;;;;;;;11.25;89.00;94860.47;2070075;28;20218;-70
2024/03/29 11:34:44;;;;;;;2.20;1.20;;;;;;;11.45;89.09;94847.66;2068032;28;20218;-70
2024/03/29 11:35:47;;;;;;;8.63;1.40;;;;;;;11.47;90.21;94852.78;2067859;28;20214;-70
2024/03/29 11:36:48;;;;;;;3.75;1.30;;;;;;;11.61;90.01;94860.38;2052245;28;20239;-70
2024/03/29 11:37:59;;;;;;;3.67;1.77;;;;;;;11.51;89.80;94843.75;2052201;28;20220;-72
2024/03/29 11:39:00;;;;;;;2.85;1.05;;;;;;;11.50;89.94;94848.13;2061918;28;20224;-71
2024/03/29 11:40:01;;;;;;;4.93;1.17;;;;;;;11.50;90.32;94861.19;2054665;28;20239;-71
2024/03/29 11:41:13;;;;;;;3.83;1.43;;;;;;;11.40;90.16;94849.78;2060159;28;20296;-71
2024/03/29 11:42:14;;;;;;;5.93;1.38;;;;;;;11.51;90.98;94855.03;2063217;28;20474;-71
2024/03/29 11:43:15;;;;;;;3.13;1.33;;;;;;;11.72;90.43;94859.56;2060749;28;20240;-72
2024/03/29 11:44:17;;;;;;;4.17;1.30;;;;;;;11.43;91.29;94858.22;2053034;28;20221;-69
2024/03/29 11:45:18;;;;;;;2.67;1.23;;;;;;;11.55;92.18;94869.56;2048850;28;20447;-70
2024/03/29 11:46:19;;;;;;;3.78;1.20;;;;;;;11.42;92.80;94872.25;2056907;28;20263;-70
2024/03/29 11:47:21;;;;;;;3.75;1.58;;;;;;;11.59;93.38;94867.50;2060127;28;20208;-70
2024/03/29 11:48:25;;;;;;;2.85;1.30;;;;;;;11.31;93.03;94872.22;2060650;28;20221;-70
2024/03/29 11:49:26;;;;;;;8.10;1.70;;;;;;;11.54;93.98;94867.03;2056226;28;20255;-70
2024/03/29 11:50:26;;;;;;;3.27;1.37;;;;;;;11.71;93.22;94886.66;2060324;28;20226;-70
2024/03/29 11:51:28;;;;;;;3.23;1.50;;;;;;;11.81;92.05;94877.16;2056774;28;20228;-70
2024/03/29 11:52:28;;;;;;;3.65;1.52;;;;;;;11.80;91.35;94879.88;2068625;28;20631;-70
2024/03/29 11:53:30;;;;;;;3.80;1.20;;;;;;;11.75;88.72;94888.91;2066912;28;20217;-70
2024/03/29 11:54:38;;;;;;;5.15;1.70;;;;;;;11.79;88.82;94894.72;2055961;28;20299;-70
2024/03/29 11:55:39;;;;;;;4.28;1.45;;;;;;;11.49;89.38;94893.53;2064573;28;20215;-70
2024/03/29 11:56:39;;;;;;;20.37;1.57;;;;;;;11.62;88.75;94877.75;2060681;28;20209;-64
2024/03/29 11:57:40;;;;;;;2.70;1.30;;;;;;;11.72;86.78;94891.78;2060866;28;20251;-64
2024/03/29 11:58:41;;;;;;;3.53;1.13;;;;;;;11.81;86.79;94900.69;2056759;28;20217;-65
2024/03/29 11:59:41;;;;;;;4.30;1.10;;;;;;;11.72;84.44;94890.94;2067270;28;20213;-65
2024/03/29 12:00:44;;;;;;;4.93;1.37;;;;;;;11.68;85.45;94879.03;2065914;28;20244;-64
2024/03/29 12:01:45;;;;;;;3.03;1.30;;;;;;;11.76;86.29;94890.56;2063777;28;20204;-64
2024/03/29 12:02:46;;;;;;;2.57;1.20;;;;;;;11.85;86.59;94891.66;2057407;28;20221;-65
2024/03/29 12:05:33;;;;;;;2.42;1.17;;;;;;;11.74;87.38;94889.88;2100819;27;20559;-63
2024/03/29 12:06:33;;;;;;;9.33;2.20;;;;;;;11.71;87.03;94886.66;2093724;28;20207;-63
2024/03/29 12:07:34;;;;;;;3.27;1.40;;;;;;;11.77;87.44;94888.81;2088749;28;20210;-63
2024/03/29 12:08:42;;;;;;;2.20;1.10;;;;;;;11.84;82.39;94883.94;2091129;28;20236;-63
2024/03/29 12:09:43;;;;;;;3.60;1.48;;;;;;;12.00;82.74;94897.50;2067325;28;20598;-63
2024/03/29 12:10:44;;;;;;;4.40;1.40;;;;;;;11.96;83.31;94895.25;2067075;28;20267;-65
2024/03/29 12:11:48;;;;;;;5.55;1.10;;;;;;;11.94;82.38;94895.34;2068131;28;20231;-63
2024/03/29 12:12:50;;;;;;;4.85;1.20;;;;;;;11.94;82.18;94897.94;2063173;28;20571;-64
2024/03/29 12:13:51;;;;;;;5.63;1.40;;;;;;;12.08;82.39;94899.53;2060808;28;20603;-63
2024/03/29 12:14:51;;;;;;;2.30;1.00;;;;;;;12.19;81.80;94893.41;2071234;28;20206;-65
2024/03/29 12:15:52;;;;;;;1.87;1.27;;;;;;;12.11;81.21;94899.25;2065931;28;20484;-65
2024/03/29 12:16:53;;;;;;;3.60;1.43;;;;;;;12.26;79.30;94902.47;2057831;28;20226;-65
2024/03/29 12:17:58;;;;;;;2.30;1.33;;;;;;;12.38;80.60;94898.88;2069185;28;20449;-66
2024/03/29 12:18:59;;;;;;;3.92;0.95;;;;;;;12.23;81.27;94894.88;2063716;28;20224;-65
2024/03/29 12:20:05;;;;;;;3.87;0.80;;;;;;;12.16;79.75;94899.72;2062667;28;20362;-65
2024/03/29 12:21:05;;;;;;;2.30;1.10;;;;;;;12.37;80.62;94897.22;2057705;28;20222;-65
2024/03/29 12:22:06;;;;;;;4.13;1.10;;;;;;;12.55;77.40;94908.00;2060002;28;20221;-65
2024/03/29 12:23:09;;;;;;;2.27;0.93;;;;;;;12.77;79.21;94911.50;2067973;28;20702;-64
2024/03/29 12:24:10;;;;;;;3.45;1.00;;;;;;;12.60;78.28;94907.63;2069067;28;20247;-65
2024/03/29 12:26:44;;;;;;;2.33;1.10;;;;;;;12.99;75.45;94897.50;2102047;27;20569;-63
2024/03/29 12:29:26;;;;;;;2.35;0.90;;;;;;;12.68;76.04;94905.22;2072335;27;20571;-64
2024/03/29 12:30:27;;;;;;;1.90;1.00;;;;;;;12.78;76.08;94896.63;2065952;28;20203;-71
2024/03/29 12:32:48;;;;;;;2.20;0.90;;;;;;;12.66;73.59;94906.28;2091701;28;20579;-67
2024/03/29 12:33:53;;;;;;;3.43;1.00;;;;;;;12.71;74.11;94919.88;2079209;28;20197;-68
2024/03/29 12:34:53;;;;;;;4.22;0.90;;;;;;;12.67;74.70;94908.81;2054618;28;20243;-68
2024/03/29 12:37:05;;;;;;;4.32;1.10;;;;;;;12.58;75.02;94892.06;2100511;27;20549;-65
2024/03/29 12:38:07;;;;;;;2.57;0.93;;;;;;;12.78;73.26;94900.06;2088240;28;20201;-65
2024/03/29 12:40:24;;;;;;;3.28;1.10;;;;;;;12.83;74.18;94915.41;2107469;27;20567;-63
2024/03/29 12:41:27;;;;;;;3.75;1.00;;;;;;;12.87;72.84;94903.72;2115569;28;20203;-63
2024/03/29 12:42:28;;;;;;;1.40;0.70;;;;;;;12.88;71.96;94898.34;2109370;28;20199;-64
2024/03/29 12:44:36;;;;;;;1.70;0.80;;;;;;;12.92;72.47;94892.88;2075419;27;20578;-66
2024/03/29 13:04:34;;;;;;;3.40;0.90;;;;;;;13.23;74.20;94876.28;2081812;27;20837;-67
2024/03/29 13:05:42;;;;;;;2.50;0.80;;;;;;;13.30;74.81;94871.34;2073732;28;20246;-68
2024/03/29 13:06:43;;;;;;;2.20;0.88;;;;;;;13.35;75.97;94870.97;2073211;28;20244;-68
2024/03/29 13:07:43;;;;;;;1.77;0.70;;;;;;;13.44;77.23;94867.59;2073479;28;20200;-68
2024/03/29 13:08:44;;;;;;;3.10;1.13;;;;;;;13.48;76.68;94865.56;2069834;28;20684;-68
2024/03/29 13:09:44;;;;;;;3.17;1.00;;;;;;;13.62;76.87;94870.47;2070413;28;20205;-68
2024/03/29 13:10:45;;;;;;;3.57;1.00;;;;;;;13.76;74.73;94878.94;2070352;28;20206;-68
2024/03/29 13:11:45;;;;;;;3.03;1.03;;;;;;;14.07;73.72;94863.19;2070287;28;20210;-68
2024/03/29 13:12:50;;;;;;;3.93;1.00;;;;;;;14.36;72.94;94848.34;2070358;28;20206;-68
2024/03/29 13:13:50;;;;;;;2.25;1.00;;;;;;;14.88;72.20;94833.34;2067784;28;20209;-63
2024/03/29 13:14:52;;;;;;;2.10;1.17;;;;;;;14.68;69.15;94830.72;2065109;28;20218;-63
2024/03/29 13:15:52;;;;;;;1.83;0.98;;;;;;;14.83;68.83;94845.09;2061943;28;20206;-64
2024/03/29 13:16:53;;;;;;;1.60;0.80;;;;;;;14.54;67.80;94855.56;2054323;28;20211;-65
2024/03/29 13:17:56;;;;;;;4.23;0.80;;;;;;;14.63;68.38;94869.69;2053718;28;20653;-64
2024/03/29 13:18:57;;;;;;;2.88;0.80;;;;;;;14.78;69.05;94870.97;2061217;28;20288;-64
2024/03/29 13:19:57;;;;;;;2.13;0.80;;;;;;;14.96;67.36;94881.59;2062235;28;20202;-65
2024/03/29 13:21:02;;;;;;;3.10;0.83;;;;;;;14.62;67.05;94878.50;2062280;28;20225;-65
2024/03/29 13:22:02;;;;;;;1.85;0.88;;;;;;;14.28;68.60;94886.75;2062407;28;20225;-64
2024/03/29 13:23:03;;;;;;;2.08;0.70;;;;;;;14.29;65.05;94883.97;2062786;28;20218;-64
2024/03/29 13:24:04;;;;;;;1.87;0.67;;;;;;;14.24;64.96;94907.16;2062462;28;20262;-65
2024/03/29 13:25:05;;;;;;;3.35;0.90;;;;;;;14.51;65.78;94901.31;2069829;28;20721;-65
2024/03/29 13:26:06;;;;;;;1.20;0.70;;;;;;;14.30;67.04;94888.25;2069352;28;20711;-65
2024/03/29 13:27:07;;;;;;;1.98;0.80;;;;;;;14.32;70.07;94894.22;2070277;28;20525;-65
2024/03/29 13:28:09;;;;;;;2.55;0.90;;;;;;;14.39;68.11;94888.44;2062327;28;20213;-70
2024/03/29 13:29:13;;;;;;;1.45;0.80;;;;;;;14.61;67.72;94890.81;2062090;28;20288;-70
2024/03/29 13:30:15;;;;;;;1.70;0.73;;;;;;;14.79;65.97;94896.28;2062827;28;20700;-70
2024/03/29 13:31:15;;;;;;;2.63;0.70;;;;;;;15.21;63.43;94903.06;2061953;28;20202;-69
2024/03/29 13:32:16;;;;;;;1.60;0.80;;;;;;;15.04;65.86;94896.69;2062207;28;20221;-69
2024/03/29 13:33:17;;;;;;;2.40;0.90;;;;;;;15.15;67.01;94893.91;2069687;28;20209;-64
2024/03/29 13:34:18;;;;;;;2.60;0.90;;;;;;;14.99;66.87;94897.09;2069401;28;20546;-64
2024/03/29 13:35:22;;;;;;;1.80;0.80;;;;;;;15.07;66.95;94893.78;2070221;28;20482;-64
2024/03/29 13:36:22;;;;;;;3.35;1.30;;;;;;;15.40;69.02;94896.09;2061711;28;20694;-65
2024/03/29 13:37:26;;;;;;;2.10;0.93;;;;;;;15.66;68.42;94902.41;2062207;28;20301;-65
2024/03/29 13:38:27;;;;;;;5.07;0.90;;;;;;;15.57;65.69;94899.81;2062498;28;20241;-64
2024/03/29 13:39:27;;;;;;;4.23;1.20;;;;;;;15.69;65.75;94909.19;2069760;28;20217;-65
2024/03/29 13:40:29;;;;;;;2.83;1.07;;;;;;;15.41;64.99;94903.84;2070198;28;20214;-65
2024/03/29 13:41:29;;;;;;;1.83;0.73;;;;;;;15.92;64.25;94900.97;2060554;28;20199;-70
2024/03/29 13:42:31;;;;;;;2.73;0.93;;;;;;;15.92;64.68;94898.34;2070264;28;20202;-69
2024/03/29 13:43:34;;;;;;;3.47;1.05;;;;;;;16.42;64.76;94899.81;2069827;28;20217;-70
2024/03/29 13:44:35;;;;;;;1.80;0.88;;;;;;;16.76;65.12;94907.91;2069003;28;20575;-70
2024/03/29 13:45:35;;;;;;;126.93;77.67;;;;;;;17.02;65.73;94914.28;2070282;28;20228;-68
2024/03/29 13:46:36;;;;;;;30.10;18.53;;;;;;;17.29;66.73;94902.81;2062254;28;20203;-68
2024/03/29 13:47:39;;;;;;;39.97;20.33;;;;;;;17.19;63.99;94902.06;2062343;28;20202;-69
2024/03/29 13:48:41;;;;;;;2.97;0.95;;;;;;;16.49;62.98;94901.69;2070178;28;20198;-67
2024/03/29 13:49:42;;;;;;;4.90;1.00;;;;;;;15.57;66.55;94900.63;2070217;28;20349;-68
2024/03/29 13:50:43;;;;;;;5.17;1.10;;;;;;;15.76;65.71;94901.56;2070518;28;20214;-66
2024/03/29 13:51:43;;;;;;;3.60;1.60;;;;;;;15.78;68.63;94907.50;2063287;28;20448;-71
2024/03/29 13:52:44;;;;;;;4.43;1.37;;;;;;;16.10;67.25;94903.69;2064614;28;20249;-71
2024/03/29 13:53:44;;;;;;;2.23;1.00;;;;;;;16.15;66.37;94898.81;2070606;28;20206;-71
2024/03/29 13:54:46;;;;;;;2.00;0.83;;;;;;;16.56;66.54;94901.94;2072047;28;20221;-71
2024/03/29 13:55:47;;;;;;;2.42;0.90;;;;;;;16.55;65.35;94897.63;2072582;28;20268;-71
2024/03/29 13:56:47;;;;;;;3.47;1.17;;;;;;;16.91;65.82;94891.59;2070271;28;20213;-71
2024/03/29 13:57:48;;;;;;;2.40;0.80;;;;;;;17.08;64.57;94901.31;2071354;28;20205;-71
2024/03/29 13:58:48;;;;;;;2.97;0.87;;;;;;;17.09;61.38;94894.22;2064429;28;20241;-71
2024/03/29 13:59:49;;;;;;;2.00;1.07;;;;;;;17.20;63.82;94894.00;2062140;28;20777;-71
2024/03/29 14:00:50;;;;;;;2.27;0.90;;;;;;;16.87;60.75;94898.13;2063278;28;20210;-71
2024/03/29 14:01:51;;;;;;;1.90;0.82;;;;;;;17.46;63.03;94887.97;2070960;28;20220;-71
2024/03/29 14:02:52;;;;;;;5.03;1.00;;;;;;;18.15;62.05;94885.41;2071077;28;20216;-71
2024/03/29 14:03:54;;;;;;;2.47;1.00;;;;;;;18.34;60.47;94878.22;2049228;28;20246;-70
2024/03/29 14:04:55;;;;;;;3.40;1.20;;;;;;;18.09;58.63;94891.31;2055025;28;20620;-71
2024/03/29 14:05:56;;;;;;;2.67;0.85;;;;;;;17.58;58.98;94896.44;2062755;28;20203;-71
2024/03/29 14:06:57;;;;;;;3.40;1.02;;;;;;;17.95;57.97;94890.94;2061933;28;20206;-71
2024/03/29 14:07:57;;;;;;;1.90;0.93;;;;;;;17.55;61.61;94900.22;2062885;28;20225;-71
2024/03/29 14:08:58;;;;;;;3.43;1.20;;;;;;;17.95;63.28;94895.38;2062382;28;20599;-71
2024/03/29 14:09:59;;;;;;;3.57;1.00;;;;;;;17.56;61.98;94887.84;2062884;28;20214;-71
2024/03/29 14:11:00;;;;;;;2.80;1.23;;;;;;;17.06;63.37;94884.81;2062624;28;20229;-71
2024/03/29 14:12:00;;;;;;;3.13;1.10;;;;;;;17.03;64.44;94876.41;2063135;28;20284;-71
2024/03/29 14:13:01;;;;;;;3.23;1.20;;;;;;;16.53;67.15;94882.97;2063005;28;20292;-72
2024/03/29 14:14:02;;;;;;;6.65;2.00;;;;;;;17.01;67.41;94879.16;2063029;28;20231;-74
2024/03/29 14:15:05;;;;;;;4.03;1.40;;;;;;;17.68;65.84;94883.16;2064588;28;20203;-71
2024/03/29 14:16:06;;;;;;;6.03;1.33;;;;;;;17.80;64.01;94876.59;2045477;28;20208;-72
2024/03/29 14:17:08;;;;;;;5.17;1.23;;;;;;;17.51;62.12;94879.56;2044606;28;20212;-72
2024/03/29 14:18:09;;;;;;;4.65;1.30;;;;;;;17.32;63.30;94883.22;2057306;28;20211;-72
2024/03/29 14:19:09;;;;;;;6.80;0.80;;;;;;;17.63;63.25;94879.16;2048693;28;20295;-71
2024/03/29 14:20:10;;;;;;;3.07;1.10;;;;;;;18.13;63.02;94883.91;2049468;29;20254;-72
2024/03/29 14:21:10;;;;;;;7.23;1.00;;;;;;;17.90;62.63;94880.00;2064500;28;20202;-71
2024/03/29 14:22:12;;;;;;;2.03;0.83;;;;;;;17.84;61.29;94875.34;2065394;28;20529;-72
2024/03/29 14:23:16;;;;;;;4.25;1.10;;;;;;;17.65;61.54;94875.53;2057556;28;20235;-71
2024/03/29 14:24:17;;;;;;;2.67;1.08;;;;;;;17.91;62.73;94878.16;2050477;28;20238;-72
2024/03/29 14:25:17;;;;;;;5.07;1.37;;;;;;;18.38;61.92;94875.09;2065273;28;20704;-71
2024/03/29 14:26:18;;;;;;;3.53;1.10;;;;;;;18.39;62.03;94868.81;2065256;28;20456;-72
2024/03/29 14:27:18;;;;;;;1.60;0.80;;;;;;;18.16;59.60;94873.06;2064547;28;20540;-71
2024/03/29 14:28:19;;;;;;;1.50;0.80;;;;;;;17.36;64.74;94877.50;2065335;28;20225;-72
2024/03/29 14:29:21;;;;;;;4.50;1.30;;;;;;;17.39;62.30;94865.81;2064348;28;20225;-71
2024/03/29 14:30:21;;;;;;;1.85;0.80;;;;;;;17.34;62.99;94865.44;2065280;28;20230;-72
2024/03/29 14:31:22;;;;;;;2.23;0.87;;;;;;;17.70;62.77;94865.34;2057358;28;20298;-71
2024/03/29 14:32:22;;;;;;;3.67;1.20;;;;;;;17.97;61.38;94864.38;2057002;28;20210;-72
2024/03/29 14:33:23;;;;;;;2.70;1.10;;;;;;;17.35;59.69;94865.28;2065145;28;20213;-72
2024/03/29 14:34:24;;;;;;;3.60;1.20;;;;;;;16.70;60.76;94871.63;2056564;28;20222;-72
2024/03/29 14:35:25;;;;;;;3.73;1.10;;;;;;;16.93;63.26;94874.66;2065049;28;20579;-71
2024/03/29 14:36:26;;;;;;;4.35;1.13;;;;;;;17.41;63.22;94864.66;2049014;28;20219;-71
2024/03/29 14:37:26;;;;;;;2.57;1.10;;;;;;;17.65;62.30;94873.75;2049048;29;20215;-71
2024/03/29 14:38:27;;;;;;;5.10;0.90;;;;;;;17.60;60.14;94860.19;2057126;28;20207;-72
2024/03/29 14:39:28;;;;;;;2.47;1.00;;;;;;;17.58;62.63;94860.31;2048601;28;20828;-72
2024/03/29 14:40:28;;;;;;;2.37;0.90;;;;;;;17.92;62.01;94856.88;2048798;28;20231;-72
2024/03/29 14:41:29;;;;;;;2.90;0.80;;;;;;;18.37;59.45;94856.75;2057235;28;20215;-72
2024/03/29 14:42:30;;;;;;;2.15;0.80;;;;;;;17.49;61.09;94850.69;2056755;28;20207;-72
2024/03/29 14:43:32;;;;;;;2.80;0.80;;;;;;;18.14;60.65;94851.25;2056969;28;20283;-72
2024/03/29 14:44:32;;;;;;;3.38;1.00;;;;;;;17.30;60.15;94851.72;2056037;28;20258;-72
2024/03/29 14:45:33;;;;;;;3.43;0.80;;;;;;;17.31;59.88;94842.84;2064766;28;20302;-72
2024/03/29 14:46:37;;;;;;;2.00;0.90;;;;;;;17.42;60.50;94857.56;2056688;28;20767;-72
2024/03/29 14:47:38;;;;;;;2.45;0.80;;;;;;;16.74;60.23;94867.69;2055951;28;20452;-71
2024/03/29 14:48:39;;;;;;;3.10;0.67;;;;;;;16.16;61.15;94866.25;2056594;28;20195;-71
2024/03/29 14:49:40;;;;;;;2.10;0.90;;;;;;;16.14;61.81;94870.84;2056014;28;20688;-71
2024/03/29 14:50:41;;;;;;;2.00;0.70;;;;;;;15.93;61.81;94855.28;2056211;28;20621;-71
2024/03/29 14:51:41;;;;;;;3.00;0.90;;;;;;;15.97;62.26;94875.06;2056363;28;20214;-71
2024/03/29 14:52:42;;;;;;;2.43;1.00;;;;;;;16.41;62.04;94872.63;2056467;28;20225;-71
2024/03/29 14:53:47;;;;;;;3.83;1.30;;;;;;;16.70;62.37;94874.25;2051926;28;20219;-63
2024/03/29 14:54:48;;;;;;;2.72;1.20;;;;;;;17.35;61.95;94875.00;2061222;28;20222;-65
2024/03/29 14:55:48;;;;;;;1.93;0.80;;;;;;;17.72;59.87;94863.38;2064420;28;20214;-65
2024/03/29 14:56:49;;;;;;;2.30;0.93;;;;;;;18.05;60.33;94853.00;2064177;28;20225;-63
2024/03/29 14:57:52;;;;;;;2.37;1.00;;;;;;;18.24;58.48;94844.00;2055952;28;20211;-67
2024/03/29 14:58:53;;;;;;;4.30;1.10;;;;;;;18.26;59.77;94842.88;2055756;28;20650;-65
2024/03/29 14:59:53;;;;;;;3.03;1.30;;;;;;;18.63;59.36;94845.25;2055966;28;20656;-65
2024/03/29 15:00:54;;;;;;;3.43;1.20;;;;;;;18.87;59.65;94840.03;2055993;28;20211;-65
2024/03/29 15:01:57;;;;;;;6.20;1.70;;;;;;;19.09;58.74;94825.34;2054859;28;20227;-65
2024/03/29 15:02:58;;;;;;;3.15;1.15;;;;;;;19.18;56.72;94838.59;2056426;28;20207;-65
2024/03/29 15:03:59;;;;;;;3.50;1.10;;;;;;;18.36;58.60;94834.81;2055406;28;20319;-65
2024/03/29 15:05:00;;;;;;;7.18;1.02;;;;;;;18.39;58.85;94837.13;2052168;28;20753;-65
2024/03/29 15:06:00;;;;;;;1.90;0.80;;;;;;;17.34;60.08;94839.88;2051435;28;20242;-64
2024/03/29 15:07:01;;;;;;;2.20;1.20;;;;;;;17.30;62.22;94828.78;2063767;28;20202;-65
2024/03/29 15:08:01;;;;;;;4.53;1.50;;;;;;;18.13;61.72;94829.25;2056113;28;20211;-64
2024/03/29 15:09:04;;;;;;;2.63;0.90;;;;;;;18.45;61.06;94830.38;2063250;28;20281;-64
2024/03/29 15:10:10;;;;;;;2.20;1.00;;;;;;;17.96;60.41;94836.31;2044110;28;20243;-65
2024/03/29 15:11:10;;;;;;;2.08;0.90;;;;;;;18.08;60.50;94834.19;2049792;28;20204;-65
2024/03/29 15:12:11;;;;;;;1.53;0.80;;;;;;;18.43;59.52;94830.53;2064285;28;20206;-64
2024/03/29 15:13:11;;;;;;;2.30;0.93;;;;;;;18.63;60.29;94832.88;2048057;28;20282;-64
2024/03/29 15:14:12;;;;;;;3.00;0.87;;;;;;;17.75;61.88;94826.09;2063082;28;20245;-72
2024/03/29 15:15:13;;;;;;;2.67;1.20;;;;;;;17.71;59.41;94841.44;2074547;28;20214;-73
2024/03/29 15:16:13;;;;;;;3.73;0.90;;;;;;;17.23;59.46;94840.13;2073129;28;20206;-73
2024/03/29 15:17:14;;;;;;;4.90;0.90;;;;;;;17.13;59.73;94841.03;2064386;28;20644;-73
2024/03/29 15:18:16;;;;;;;1.65;0.77;;;;;;;17.07;61.69;94843.47;2071291;28;20205;-73
2024/03/29 15:19:16;;;;;;;2.92;0.75;;;;;;;17.58;60.53;94841.84;2065692;28;20584;-64
2024/03/29 15:20:18;;;;;;;5.53;0.90;;;;;;;18.06;60.47;94839.66;2058796;28;20324;-64
2024/03/29 15:21:23;;;;;;;3.05;1.02;;;;;;;18.25;59.85;94841.19;2072043;28;20778;-64
2024/03/29 15:22:23;;;;;;;2.97;0.85;;;;;;;18.46;59.62;94837.28;2072264;28;20606;-63
2024/03/29 15:23:26;;;;;;;1.90;0.70;;;;;;;18.72;59.46;94850.41;2072023;28;20202;-64
2024/03/29 15:24:26;;;;;;;1.70;0.95;;;;;;;18.87;58.88;94842.66;2071038;28;20229;-62
2024/03/29 15:25:34;;;;;;;2.57;0.90;;;;;;;19.06;59.45;94843.38;2072225;28;20240;-64
2024/03/29 15:26:35;;;;;;;6.40;1.00;;;;;;;18.67;59.92;94850.06;2064551;28;20343;-63
2024/03/29 15:29:07;;;;;;;2.28;0.90;;;;;;;18.87;60.46;94852.44;2065894;28;20692;-63
2024/03/29 15:30:08;;;;;;;2.70;1.02;;;;;;;19.22;60.28;94847.84;2073441;28;20217;-64
2024/03/29 15:31:13;;;;;;;2.20;0.80;;;;;;;19.49;59.17;94848.47;2080200;28;20208;-63
2024/03/29 15:32:13;;;;;;;1.60;0.70;;;;;;;19.59;59.42;94846.47;2064403;28;20207;-64
2024/03/29 15:33:14;;;;;;;2.10;0.80;;;;;;;19.57;59.10;94845.84;2071920;28;20212;-63
2024/03/29 15:34:14;;;;;;;1.87;0.93;;;;;;;19.17;59.11;94845.72;2071794;28;20346;-72
2024/03/29 15:35:15;;;;;;;3.27;0.90;;;;;;;18.89;60.01;94839.84;2063948;28;20246;-72
2024/03/29 15:36:17;;;;;;;2.67;1.02;;;;;;;18.84;59.46;94835.06;2063909;28;20214;-69